sensor_id;sensor_type;location;lat;lon;timestamp;pressure;altitude;pressure_sealevel;temperature;humidity
21988;BME280;11158;53.404;-1.510;2022-09-12T00:00:42;100111.97;;;23.20;48.66
21988;BME280;11158;53.404;-1.510;2022-09-12T00:03:08;100108.63;;;22.21;51.18
21988;BME280;11158;53.404;-1.510;2022-09-12T00:05:40;100107.59;;;22.58;50.73
21988;BME280;11158;53.404;-1.510;2022-09-12T00:08:07;100109.28;;;23.00;49.65
21988;BME280;11158;53.404;-1.510;2022-09-12T00:10:38;100108.44;;;23.10;49.10
21988;BME280;11158;53.404;-1.510;2022-09-12T00:13:05;100107.06;;;22.82;49.96
21988;BME280;11158;53.404;-1.510;2022-09-12T00:15:31;100104.34;;;22.66;50.85
21988;BME280;11158;53.404;-1.510;2022-09-12T00:17:56;100104.06;;;22.63;50.93
21988;BME280;11158;53.404;-1.510;2022-09-12T00:20:22;100099.97;;;22.60;50.97
21988;BME280;11158;53.404;-1.510;2022-09-12T00:22:48;100103.47;;;22.40;51.72
21988;BME280;11158;53.404;-1.510;2022-09-12T00:25:13;100094.22;;;22.36;51.88
21988;BME280;11158;53.404;-1.510;2022-09-12T00:27:39;100091.38;;;22.00;53.77
21988;BME280;11158;53.404;-1.510;2022-09-12T00:30:06;100097.94;;;22.04;53.94
21988;BME280;11158;53.404;-1.510;2022-09-12T00:32:32;100089.72;;;21.36;55.33
21988;BME280;11158;53.404;-1.510;2022-09-12T00:34:59;100086.47;;;21.39;56.14
21988;BME280;11158;53.404;-1.510;2022-09-12T00:37:27;100091.84;;;21.29;56.49
21988;BME280;11158;53.404;-1.510;2022-09-12T00:39:52;100088.00;;;21.67;55.74
21988;BME280;11158;53.404;-1.510;2022-09-12T00:42:18;100083.44;;;21.83;55.24
21988;BME280;11158;53.404;-1.510;2022-09-12T00:44:47;100083.81;;;21.44;56.56
21988;BME280;11158;53.404;-1.510;2022-09-12T00:47:16;100084.75;;;21.28;57.47
21988;BME280;11158;53.404;-1.510;2022-09-12T00:49:48;100079.22;;;21.50;57.02
21988;BME280;11158;53.404;-1.510;2022-09-12T00:55:02;100072.88;;;21.39;57.65
21988;BME280;11158;53.404;-1.510;2022-09-12T00:57:40;100072.06;;;21.39;57.56
21988;BME280;11158;53.404;-1.510;2022-09-12T01:00:11;100065.44;;;21.19;58.53
21988;BME280;11158;53.404;-1.510;2022-09-12T01:02:41;100067.81;;;21.05;59.58
21988;BME280;11158;53.404;-1.510;2022-09-12T01:05:08;100069.41;;;21.01;59.41
21988;BME280;11158;53.404;-1.510;2022-09-12T01:07:36;100069.25;;;20.81;60.21
21988;BME280;11158;53.404;-1.510;2022-09-12T01:10:03;100066.13;;;20.99;59.84
21988;BME280;11158;53.404;-1.510;2022-09-12T01:12:30;100073.75;;;21.02;59.92
21988;BME280;11158;53.404;-1.510;2022-09-12T01:14:57;100070.59;;;21.21;59.34
21988;BME280;11158;53.404;-1.510;2022-09-12T01:17:31;100065.66;;;21.07;59.87
21988;BME280;11158;53.404;-1.510;2022-09-12T01:23:24;100066.16;;;21.09;59.96
21988;BME280;11158;53.404;-1.510;2022-09-12T01:31:36;100052.09;;;21.18;59.95
21988;BME280;11158;53.404;-1.510;2022-09-12T01:34:25;100046.53;;;21.40;60.13
21988;BME280;11158;53.404;-1.510;2022-09-12T01:37:16;100042.00;;;21.56;59.01
21988;BME280;11158;53.404;-1.510;2022-09-12T01:40:12;100043.13;;;21.65;58.72
21988;BME280;11158;53.404;-1.510;2022-09-12T01:42:52;100041.34;;;21.38;58.90
21988;BME280;11158;53.404;-1.510;2022-09-12T01:47:52;100037.25;;;21.30;59.36
21988;BME280;11158;53.404;-1.510;2022-09-12T01:50:30;100038.19;;;21.57;58.94
21988;BME280;11158;53.404;-1.510;2022-09-12T01:53:01;100038.78;;;21.16;59.34
21988;BME280;11158;53.404;-1.510;2022-09-12T01:55:33;100042.69;;;20.88;61.00
21988;BME280;11158;53.404;-1.510;2022-09-12T01:58:07;100031.69;;;20.40;61.42
21988;BME280;11158;53.404;-1.510;2022-09-12T02:00:53;100034.03;;;20.59;61.13
21988;BME280;11158;53.404;-1.510;2022-09-12T02:03:59;100040.69;;;21.16;60.30
21988;BME280;11158;53.404;-1.510;2022-09-12T02:06:56;100037.47;;;21.24;59.67
21988;BME280;11158;53.404;-1.510;2022-09-12T02:11:56;100039.25;;;21.03;60.79
21988;BME280;11158;53.404;-1.510;2022-09-12T02:14:45;100036.50;;;21.45;59.97
21988;BME280;11158;53.404;-1.510;2022-09-12T02:17:15;100035.19;;;21.53;59.12
21988;BME280;11158;53.404;-1.510;2022-09-12T02:19:48;100028.44;;;21.71;58.67
21988;BME280;11158;53.404;-1.510;2022-09-12T02:22:19;100023.06;;;21.81;58.15
21988;BME280;11158;53.404;-1.510;2022-09-12T02:24:53;100030.06;;;21.67;58.77
21988;BME280;11158;53.404;-1.510;2022-09-12T02:27:26;100021.13;;;21.77;58.40
21988;BME280;11158;53.404;-1.510;2022-09-12T02:29:55;100020.53;;;21.59;58.78
21988;BME280;11158;53.404;-1.510;2022-09-12T02:32:35;100021.13;;;21.19;60.34
21988;BME280;11158;53.404;-1.510;2022-09-12T02:40:22;100016.56;;;21.29;60.42
21988;BME280;11158;53.404;-1.510;2022-09-12T02:42:49;100008.63;;;21.18;59.86
21988;BME280;11158;53.404;-1.510;2022-09-12T02:45:16;100015.94;;;21.12;60.76
21988;BME280;11158;53.404;-1.510;2022-09-12T02:48:25;100014.22;;;21.48;59.77
21988;BME280;11158;53.404;-1.510;2022-09-12T02:50:52;100009.34;;;21.50;59.14
21988;BME280;11158;53.404;-1.510;2022-09-12T02:53:18;100006.06;;;21.43;59.41
21988;BME280;11158;53.404;-1.510;2022-09-12T02:55:44;100016.63;;;20.92;60.97
21988;BME280;11158;53.404;-1.510;2022-09-12T02:58:13;100016.75;;;21.12;60.56
21988;BME280;11158;53.404;-1.510;2022-09-12T03:01:06;100021.47;;;21.32;60.20
21988;BME280;11158;53.404;-1.510;2022-09-12T03:03:50;100020.16;;;20.55;61.93
21988;BME280;11158;53.404;-1.510;2022-09-12T03:06:49;100017.75;;;20.59;63.20
21988;BME280;11158;53.404;-1.510;2022-09-12T03:24:28;100024.94;;;21.23;61.12
21988;BME280;11158;53.404;-1.510;2022-09-12T03:27:15;100021.81;;;21.41;60.19
21988;BME280;11158;53.404;-1.510;2022-09-12T03:29:42;100027.03;;;21.53;59.85
21988;BME280;11158;53.404;-1.510;2022-09-12T03:32:10;100018.91;;;21.58;59.50
21988;BME280;11158;53.404;-1.510;2022-09-12T03:34:36;100011.94;;;21.30;60.85
21988;BME280;11158;53.404;-1.510;2022-09-12T03:37:01;100007.50;;;21.08;61.35
21988;BME280;11158;53.404;-1.510;2022-09-12T03:39:27;100002.38;;;21.17;61.22
21988;BME280;11158;53.404;-1.510;2022-09-12T03:41:53;100000.09;;;20.99;61.62
21988;BME280;11158;53.404;-1.510;2022-09-12T03:44:19;100004.13;;;20.91;61.99
21988;BME280;11158;53.404;-1.510;2022-09-12T03:46:45;99997.97;;;20.63;62.83
21988;BME280;11158;53.404;-1.510;2022-09-12T03:49:11;99994.03;;;20.17;63.89
21988;BME280;11158;53.404;-1.510;2022-09-12T03:51:38;99988.78;;;20.05;64.63
21988;BME280;11158;53.404;-1.510;2022-09-12T03:54:05;99982.56;;;20.42;63.21
21988;BME280;11158;53.404;-1.510;2022-09-12T03:56:31;99971.63;;;19.99;64.67
21988;BME280;11158;53.404;-1.510;2022-09-12T03:58:57;99977.47;;;19.86;65.30
21988;BME280;11158;53.404;-1.510;2022-09-12T04:01:23;99984.75;;;19.36;66.47
21988;BME280;11158;53.404;-1.510;2022-09-12T04:03:50;99980.00;;;19.49;65.80
21988;BME280;11158;53.404;-1.510;2022-09-12T04:06:19;99967.34;;;19.54;65.75
21988;BME280;11158;53.404;-1.510;2022-09-12T04:08:51;99977.22;;;19.65;66.32
21988;BME280;11158;53.404;-1.510;2022-09-12T04:11:19;99969.41;;;19.69;65.67
21988;BME280;11158;53.404;-1.510;2022-09-12T04:13:46;99961.91;;;19.76;65.13
21988;BME280;11158;53.404;-1.510;2022-09-12T04:16:13;99959.66;;;19.46;66.24
21988;BME280;11158;53.404;-1.510;2022-09-12T04:18:39;99964.38;;;19.78;65.32
21988;BME280;11158;53.404;-1.510;2022-09-12T04:21:07;99958.94;;;20.05;64.27
21988;BME280;11158;53.404;-1.510;2022-09-12T04:23:34;99951.56;;;20.70;62.68
21988;BME280;11158;53.404;-1.510;2022-09-12T04:26:01;99955.19;;;20.81;61.82
21988;BME280;11158;53.404;-1.510;2022-09-12T04:28:28;99958.81;;;21.02;61.47
21988;BME280;11158;53.404;-1.510;2022-09-12T04:30:55;99944.88;;;21.41;59.96
21988;BME280;11158;53.404;-1.510;2022-09-12T04:33:21;99943.41;;;21.18;60.53
21988;BME280;11158;53.404;-1.510;2022-09-12T04:35:47;99947.28;;;21.37;60.21
21988;BME280;11158;53.404;-1.510;2022-09-12T04:38:14;99945.44;;;21.43;59.96
21988;BME280;11158;53.404;-1.510;2022-09-12T04:40:39;99948.34;;;21.31;60.30
21988;BME280;11158;53.404;-1.510;2022-09-12T04:43:05;99944.94;;;21.56;59.33
21988;BME280;11158;53.404;-1.510;2022-09-12T04:45:32;99946.34;;;21.89;58.65
21988;BME280;11158;53.404;-1.510;2022-09-12T04:47:58;99956.69;;;21.98;57.94
21988;BME280;11158;53.404;-1.510;2022-09-12T04:50:25;99952.06;;;21.98;57.91
21988;BME280;11158;53.404;-1.510;2022-09-12T04:52:52;99952.34;;;21.86;57.88
21988;BME280;11158;53.404;-1.510;2022-09-12T04:55:19;99947.97;;;22.06;58.01
21988;BME280;11158;53.404;-1.510;2022-09-12T04:57:44;99944.19;;;22.07;57.33
21988;BME280;11158;53.404;-1.510;2022-09-12T05:00:11;99944.28;;;21.39;59.72
21988;BME280;11158;53.404;-1.510;2022-09-12T05:02:39;99947.66;;;20.56;61.92
21988;BME280;11158;53.404;-1.510;2022-09-12T05:05:05;99947.56;;;20.08;63.67
21988;BME280;11158;53.404;-1.510;2022-09-12T05:07:31;99949.03;;;20.21;63.41
21988;BME280;11158;53.404;-1.510;2022-09-12T05:09:57;99952.06;;;21.09;61.23
21988;BME280;11158;53.404;-1.510;2022-09-12T05:12:23;99950.78;;;21.32;59.77
21988;BME280;11158;53.404;-1.510;2022-09-12T05:14:49;99948.38;;;21.36;59.90
21988;BME280;11158;53.404;-1.510;2022-09-12T05:17:15;99959.59;;;21.55;59.11
21988;BME280;11158;53.404;-1.510;2022-09-12T05:19:40;99960.56;;;21.28;59.66
21988;BME280;11158;53.404;-1.510;2022-09-12T05:22:06;99970.03;;;20.36;62.50
21988;BME280;11158;53.404;-1.510;2022-09-12T05:24:32;99956.81;;;20.12;63.58
21988;BME280;11158;53.404;-1.510;2022-09-12T05:26:59;99964.47;;;20.53;62.31
21988;BME280;11158;53.404;-1.510;2022-09-12T05:29:25;99966.28;;;20.74;61.56
21988;BME280;11158;53.404;-1.510;2022-09-12T05:31:51;99967.00;;;21.07;61.06
21988;BME280;11158;53.404;-1.510;2022-09-12T05:34:18;99962.59;;;21.53;59.21
21988;BME280;11158;53.404;-1.510;2022-09-12T05:36:43;99959.91;;;21.69;59.07
21988;BME280;11158;53.404;-1.510;2022-09-12T05:39:09;99957.50;;;21.88;58.86
21988;BME280;11158;53.404;-1.510;2022-09-12T05:41:35;99961.03;;;21.88;58.69
21988;BME280;11158;53.404;-1.510;2022-09-12T05:44:04;99956.66;;;21.72;58.77
21988;BME280;11158;53.404;-1.510;2022-09-12T05:46:35;99956.88;;;21.55;59.42
21988;BME280;11158;53.404;-1.510;2022-09-12T05:49:03;99952.28;;;21.56;59.72
21988;BME280;11158;53.404;-1.510;2022-09-12T05:51:34;99962.06;;;21.67;59.33
21988;BME280;11158;53.404;-1.510;2022-09-12T05:54:02;99958.53;;;21.71;58.91
21988;BME280;11158;53.404;-1.510;2022-09-12T05:56:31;99951.75;;;21.64;59.69
21988;BME280;11158;53.404;-1.510;2022-09-12T05:59:00;99955.59;;;21.99;58.70
21988;BME280;11158;53.404;-1.510;2022-09-12T06:01:29;99955.66;;;22.24;57.50
21988;BME280;11158;53.404;-1.510;2022-09-12T06:03:57;99961.59;;;22.16;57.61
21988;BME280;11158;53.404;-1.510;2022-09-12T06:06:26;99959.41;;;21.92;57.81
21988;BME280;11158;53.404;-1.510;2022-09-12T06:08:55;99953.34;;;21.54;58.76
21988;BME280;11158;53.404;-1.510;2022-09-12T06:11:24;99955.50;;;21.52;58.77
21988;BME280;11158;53.404;-1.510;2022-09-12T06:13:51;99951.19;;;21.57;59.01
21988;BME280;11158;53.404;-1.510;2022-09-12T06:16:19;99955.81;;;21.51;58.99
21988;BME280;11158;53.404;-1.510;2022-09-12T06:18:50;99961.50;;;20.91;61.05
21988;BME280;11158;53.404;-1.510;2022-09-12T06:21:16;99961.84;;;20.63;62.04
21988;BME280;11158;53.404;-1.510;2022-09-12T06:23:42;99958.09;;;20.69;61.65
21988;BME280;11158;53.404;-1.510;2022-09-12T06:26:10;99949.81;;;20.54;62.52
21988;BME280;11158;53.404;-1.510;2022-09-12T06:28:39;99952.22;;;20.87;61.73
21988;BME280;11158;53.404;-1.510;2022-09-12T06:31:10;99951.09;;;21.36;60.74
21988;BME280;11158;53.404;-1.510;2022-09-12T06:33:39;99953.50;;;21.27;60.59
21988;BME280;11158;53.404;-1.510;2022-09-12T06:36:11;99956.56;;;21.41;60.39
21988;BME280;11158;53.404;-1.510;2022-09-12T06:38:37;99953.78;;;21.31;60.83
21988;BME280;11158;53.404;-1.510;2022-09-12T06:41:04;99948.00;;;21.90;59.10
21988;BME280;11158;53.404;-1.510;2022-09-12T06:43:32;99954.50;;;21.79;59.09
21988;BME280;11158;53.404;-1.510;2022-09-12T06:45:58;99952.28;;;21.66;59.15
21988;BME280;11158;53.404;-1.510;2022-09-12T06:48:24;99959.69;;;21.81;59.35
21988;BME280;11158;53.404;-1.510;2022-09-12T06:51:04;99963.16;;;21.56;60.26
21988;BME280;11158;53.404;-1.510;2022-09-12T06:53:33;99963.22;;;21.81;59.08
21988;BME280;11158;53.404;-1.510;2022-09-12T06:56:06;99967.84;;;21.81;58.99
21988;BME280;11158;53.404;-1.510;2022-09-12T06:58:34;99959.63;;;21.65;59.44
21988;BME280;11158;53.404;-1.510;2022-09-12T07:01:02;99961.88;;;21.99;58.52
21988;BME280;11158;53.404;-1.510;2022-09-12T07:03:29;99965.41;;;22.05;57.89
21988;BME280;11158;53.404;-1.510;2022-09-12T07:05:55;99960.50;;;22.07;57.86
21988;BME280;11158;53.404;-1.510;2022-09-12T07:08:21;99965.09;;;21.70;59.05
21988;BME280;11158;53.404;-1.510;2022-09-12T07:10:47;99963.19;;;20.28;63.15
21988;BME280;11158;53.404;-1.510;2022-09-12T07:13:12;99961.69;;;20.80;61.84
21988;BME280;11158;53.404;-1.510;2022-09-12T07:15:39;99963.44;;;21.01;61.60
21988;BME280;11158;53.404;-1.510;2022-09-12T07:18:04;99965.69;;;21.20;60.48
21988;BME280;11158;53.404;-1.510;2022-09-12T07:20:30;99972.00;;;20.78;61.92
21988;BME280;11158;53.404;-1.510;2022-09-12T07:22:58;99962.44;;;21.23;61.21
21988;BME280;11158;53.404;-1.510;2022-09-12T07:25:24;99963.69;;;21.58;59.63
21988;BME280;11158;53.404;-1.510;2022-09-12T07:27:51;99960.69;;;21.54;59.81
21988;BME280;11158;53.404;-1.510;2022-09-12T07:30:18;99959.38;;;21.77;59.14
21988;BME280;11158;53.404;-1.510;2022-09-12T07:32:43;99952.88;;;21.93;59.28
21988;BME280;11158;53.404;-1.510;2022-09-12T07:35:09;99964.78;;;21.57;60.06
21988;BME280;11158;53.404;-1.510;2022-09-12T07:37:35;99953.66;;;21.68;59.83
21988;BME280;11158;53.404;-1.510;2022-09-12T07:40:01;99960.50;;;21.81;59.46
21988;BME280;11158;53.404;-1.510;2022-09-12T07:42:27;99963.97;;;21.71;60.03
21988;BME280;11158;53.404;-1.510;2022-09-12T07:44:53;99954.22;;;21.75;59.44
21988;BME280;11158;53.404;-1.510;2022-09-12T07:47:19;99958.88;;;21.85;59.46
21988;BME280;11158;53.404;-1.510;2022-09-12T07:49:45;99955.88;;;21.97;59.36
21988;BME280;11158;53.404;-1.510;2022-09-12T07:52:11;99951.19;;;21.67;59.96
21988;BME280;11158;53.404;-1.510;2022-09-12T07:54:38;99956.13;;;21.80;59.23
21988;BME280;11158;53.404;-1.510;2022-09-12T07:57:03;99956.69;;;21.98;58.94
21988;BME280;11158;53.404;-1.510;2022-09-12T07:59:29;99959.97;;;21.94;59.05
21988;BME280;11158;53.404;-1.510;2022-09-12T08:01:55;99957.66;;;21.40;60.51
21988;BME280;11158;53.404;-1.510;2022-09-12T08:04:20;99951.22;;;21.04;61.64
21988;BME280;11158;53.404;-1.510;2022-09-12T08:06:46;99961.31;;;21.13;61.31
21988;BME280;11158;53.404;-1.510;2022-09-12T08:09:12;99954.06;;;21.34;61.30
21988;BME280;11158;53.404;-1.510;2022-09-12T08:11:40;99939.66;;;21.39;60.62
21988;BME280;11158;53.404;-1.510;2022-09-12T08:14:06;99947.94;;;20.97;62.17
21988;BME280;11158;53.404;-1.510;2022-09-12T08:16:33;99947.06;;;20.86;62.68
21988;BME280;11158;53.404;-1.510;2022-09-12T08:19:00;99945.38;;;20.80;62.79
21988;BME280;11158;53.404;-1.510;2022-09-12T08:21:31;99939.94;;;20.75;63.58
21988;BME280;11158;53.404;-1.510;2022-09-12T08:24:03;99933.69;;;20.37;64.30
21988;BME280;11158;53.404;-1.510;2022-09-12T08:26:30;99944.19;;;20.60;64.26
21988;BME280;11158;53.404;-1.510;2022-09-12T08:28:56;99937.66;;;19.92;66.84
21988;BME280;11158;53.404;-1.510;2022-09-12T08:31:24;99935.25;;;20.27;65.71
21988;BME280;11158;53.404;-1.510;2022-09-12T08:33:50;99937.84;;;20.87;64.23
21988;BME280;11158;53.404;-1.510;2022-09-12T08:36:22;99933.66;;;21.27;62.66
21988;BME280;11158;53.404;-1.510;2022-09-12T08:38:50;99942.22;;;21.71;61.22
21988;BME280;11158;53.404;-1.510;2022-09-12T08:41:29;99938.94;;;21.49;62.20
21988;BME280;11158;53.404;-1.510;2022-09-12T08:52:13;99938.22;;;22.35;61.06
21988;BME280;11158;53.404;-1.510;2022-09-12T08:54:41;99934.88;;;23.55;57.43
21988;BME280;11158;53.404;-1.510;2022-09-12T08:57:13;99946.06;;;23.53;56.29
21988;BME280;11158;53.404;-1.510;2022-09-12T08:59:41;99951.25;;;22.69;58.01
21988;BME280;11158;53.404;-1.510;2022-09-12T09:02:26;99943.38;;;23.48;56.34
21988;BME280;11158;53.404;-1.510;2022-09-12T09:10:46;99948.00;;;24.90;53.21
21988;BME280;11158;53.404;-1.510;2022-09-12T09:16:09;99942.91;;;25.88;50.42
21988;BME280;11158;53.404;-1.510;2022-09-12T09:18:39;99947.00;;;25.86;50.50
21988;BME280;11158;53.404;-1.510;2022-09-12T09:21:22;99945.53;;;25.75;50.20
21988;BME280;11158;53.404;-1.510;2022-09-12T09:23:54;99948.78;;;25.39;50.85
21988;BME280;11158;53.404;-1.510;2022-09-12T09:26:27;99944.06;;;25.63;50.74
21988;BME280;11158;53.404;-1.510;2022-09-12T09:29:02;99942.72;;;25.61;50.34
21988;BME280;11158;53.404;-1.510;2022-09-12T09:31:36;99942.28;;;24.62;52.80
21988;BME280;11158;53.404;-1.510;2022-09-12T09:34:19;99947.38;;;24.40;53.70
21988;BME280;11158;53.404;-1.510;2022-09-12T09:44:51;99945.25;;;25.95;50.00
21988;BME280;11158;53.404;-1.510;2022-09-12T09:47:18;99949.97;;;26.08;49.10
21988;BME280;11158;53.404;-1.510;2022-09-12T09:49:44;99948.97;;;26.37;48.99
21988;BME280;11158;53.404;-1.510;2022-09-12T09:52:14;99945.59;;;26.40;48.62
21988;BME280;11158;53.404;-1.510;2022-09-12T09:54:47;99940.28;;;25.97;49.96
21988;BME280;11158;53.404;-1.510;2022-09-12T10:03:03;99950.72;;;25.76;50.77
21988;BME280;11158;53.404;-1.510;2022-09-12T10:05:31;99952.22;;;25.25;52.29
21988;BME280;11158;53.404;-1.510;2022-09-12T10:07:57;99952.16;;;25.31;51.99
21988;BME280;11158;53.404;-1.510;2022-09-12T10:10:24;99956.56;;;25.50;51.47
21988;BME280;11158;53.404;-1.510;2022-09-12T10:12:51;99946.09;;;26.28;50.04
21988;BME280;11158;53.404;-1.510;2022-09-12T10:15:30;99942.03;;;26.86;48.84
21988;BME280;11158;53.404;-1.510;2022-09-12T10:17:56;99946.09;;;27.16;48.01
21988;BME280;11158;53.404;-1.510;2022-09-12T10:25:52;99945.53;;;25.75;49.90
21988;BME280;11158;53.404;-1.510;2022-09-12T10:28:39;99951.59;;;25.53;50.92
21988;BME280;11158;53.404;-1.510;2022-09-12T10:31:07;99949.75;;;25.86;49.58
21988;BME280;11158;53.404;-1.510;2022-09-12T10:33:41;99947.94;;;26.00;49.87
21988;BME280;11158;53.404;-1.510;2022-09-12T10:36:10;99949.16;;;26.73;47.85
21988;BME280;11158;53.404;-1.510;2022-09-12T10:38:37;99945.91;;;26.06;49.44
21988;BME280;11158;53.404;-1.510;2022-09-12T10:41:06;99945.25;;;25.95;49.73
21988;BME280;11158;53.404;-1.510;2022-09-12T10:48:39;99956.53;;;24.83;52.33
21988;BME280;11158;53.404;-1.510;2022-09-12T10:51:04;99950.44;;;25.59;50.72
21988;BME280;11158;53.404;-1.510;2022-09-12T10:53:41;99956.72;;;25.59;50.39
21988;BME280;11158;53.404;-1.510;2022-09-12T10:56:17;99946.94;;;25.72;50.03
21988;BME280;11158;53.404;-1.510;2022-09-12T11:02:00;99950.53;;;24.81;53.90
21988;BME280;11158;53.404;-1.510;2022-09-12T11:07:34;99939.72;;;24.08;56.23
21988;BME280;11158;53.404;-1.510;2022-09-12T11:10:23;99953.88;;;24.10;56.56
21988;BME280;11158;53.404;-1.510;2022-09-12T11:15:56;99941.50;;;25.05;55.12
21988;BME280;11158;53.404;-1.510;2022-09-12T11:39:59;99931.56;;;26.61;49.38
21988;BME280;11158;53.404;-1.510;2022-09-12T11:42:36;99929.81;;;26.51;50.45
21988;BME280;11158;53.404;-1.510;2022-09-12T11:45:16;99933.53;;;26.08;50.83
21988;BME280;11158;53.404;-1.510;2022-09-12T11:47:48;99934.44;;;26.97;49.08
21988;BME280;11158;53.404;-1.510;2022-09-12T11:50:25;99934.22;;;26.66;49.52
21988;BME280;11158;53.404;-1.510;2022-09-12T11:52:56;99927.78;;;26.10;49.24
21988;BME280;11158;53.404;-1.510;2022-09-12T11:55:28;99933.88;;;25.88;50.05
21988;BME280;11158;53.404;-1.510;2022-09-12T11:57:57;99937.88;;;25.96;49.95
21988;BME280;11158;53.404;-1.510;2022-09-12T12:03:19;99951.38;;;25.49;51.33
21988;BME280;11158;53.404;-1.510;2022-09-12T12:05:50;99955.47;;;25.70;51.01
21988;BME280;11158;53.404;-1.510;2022-09-12T12:08:23;99946.63;;;25.36;52.43
21988;BME280;11158;53.404;-1.510;2022-09-12T12:16:14;99950.88;;;25.66;51.33
21988;BME280;11158;53.404;-1.510;2022-09-12T12:18:44;99947.00;;;26.24;50.12
21988;BME280;11158;53.404;-1.510;2022-09-12T12:21:30;99955.38;;;25.76;50.36
21988;BME280;11158;53.404;-1.510;2022-09-12T12:34:41;99948.38;;;25.26;51.71
21988;BME280;11158;53.404;-1.510;2022-09-12T12:42:55;99968.09;;;26.23;49.42
21988;BME280;11158;53.404;-1.510;2022-09-12T12:47:56;99971.53;;;25.34;51.74
21988;BME280;11158;53.404;-1.510;2022-09-12T12:50:26;99972.34;;;25.11;51.91
21988;BME280;11158;53.404;-1.510;2022-09-12T12:55:37;99958.22;;;25.27;51.99
21988;BME280;11158;53.404;-1.510;2022-09-12T12:58:32;99953.72;;;24.88;53.18
21988;BME280;11158;53.404;-1.510;2022-09-12T13:03:34;99947.94;;;25.19;51.75
21988;BME280;11158;53.404;-1.510;2022-09-12T13:06:04;99949.28;;;24.69;53.12
21988;BME280;11158;53.404;-1.510;2022-09-12T13:08:34;99959.78;;;24.85;52.77
21988;BME280;11158;53.404;-1.510;2022-09-12T13:13:51;99941.97;;;25.74;51.24
21988;BME280;11158;53.404;-1.510;2022-09-12T13:16:52;99940.13;;;25.32;51.40
21988;BME280;11158;53.404;-1.510;2022-09-12T13:19:31;99940.38;;;25.54;51.16
21988;BME280;11158;53.404;-1.510;2022-09-12T13:22:08;99940.50;;;25.44;51.04
21988;BME280;11158;53.404;-1.510;2022-09-12T13:24:46;99942.81;;;24.59;53.29
21988;BME280;11158;53.404;-1.510;2022-09-12T13:27:23;99940.34;;;24.87;53.20
21988;BME280;11158;53.404;-1.510;2022-09-12T13:30:10;99944.47;;;25.33;51.31
21988;BME280;11158;53.404;-1.510;2022-09-12T13:32:38;99945.06;;;25.05;51.76
21988;BME280;11158;53.404;-1.510;2022-09-12T13:35:10;99949.81;;;24.71;52.70
21988;BME280;11158;53.404;-1.510;2022-09-12T13:38:29;99952.81;;;25.22;52.10
21988;BME280;11158;53.404;-1.510;2022-09-12T13:43:40;99953.50;;;26.09;49.54
21988;BME280;11158;53.404;-1.510;2022-09-12T13:46:08;99954.50;;;25.80;49.84
21988;BME280;11158;53.404;-1.510;2022-09-12T13:48:38;99944.63;;;25.79;50.14
21988;BME280;11158;53.404;-1.510;2022-09-12T13:51:05;99947.19;;;25.57;50.58
21988;BME280;11158;53.404;-1.510;2022-09-12T13:53:41;99940.47;;;25.25;51.35
21988;BME280;11158;53.404;-1.510;2022-09-12T13:56:14;99935.19;;;26.09;49.79
21988;BME280;11158;53.404;-1.510;2022-09-12T13:58:57;99926.25;;;26.18;49.80
21988;BME280;11158;53.404;-1.510;2022-09-12T14:01:42;99922.03;;;26.72;48.76
21988;BME280;11158;53.404;-1.510;2022-09-12T14:04:15;99924.16;;;27.03;47.59
21988;BME280;11158;53.404;-1.510;2022-09-12T14:09:42;99912.09;;;25.97;49.72
21988;BME280;11158;53.404;-1.510;2022-09-12T14:12:14;99913.72;;;24.98;51.72
21988;BME280;11158;53.404;-1.510;2022-09-12T14:14:47;99915.75;;;25.54;50.39
21988;BME280;11158;53.404;-1.510;2022-09-12T14:19:42;99918.84;;;26.18;48.70
21988;BME280;11158;53.404;-1.510;2022-09-12T14:22:11;99914.28;;;26.13;49.33
21988;BME280;11158;53.404;-1.510;2022-09-12T14:24:45;99920.75;;;25.04;51.66
21988;BME280;11158;53.404;-1.510;2022-09-12T14:27:31;99917.84;;;25.19;51.71
21988;BME280;11158;53.404;-1.510;2022-09-12T14:30:05;99911.97;;;25.07;51.95
21988;BME280;11158;53.404;-1.510;2022-09-12T14:32:31;99917.56;;;24.43;53.08
21988;BME280;11158;53.404;-1.510;2022-09-12T14:35:24;99924.88;;;24.77;52.79
21988;BME280;11158;53.404;-1.510;2022-09-12T14:37:49;99917.00;;;25.43;51.33
21988;BME280;11158;53.404;-1.510;2022-09-12T14:40:18;99920.34;;;24.92;52.54
21988;BME280;11158;53.404;-1.510;2022-09-12T14:42:45;99916.97;;;25.00;52.35
21988;BME280;11158;53.404;-1.510;2022-09-12T14:45:28;99908.50;;;25.63;50.61
21988;BME280;11158;53.404;-1.510;2022-09-12T14:47:55;99905.50;;;25.22;52.01
21988;BME280;11158;53.404;-1.510;2022-09-12T14:50:25;99913.66;;;24.55;53.35
21988;BME280;11158;53.404;-1.510;2022-09-12T14:55:33;99913.31;;;24.85;52.55
21988;BME280;11158;53.404;-1.510;2022-09-12T14:58:26;99908.81;;;24.41;54.35
21988;BME280;11158;53.404;-1.510;2022-09-12T15:03:33;99911.09;;;24.87;52.66
21988;BME280;11158;53.404;-1.510;2022-09-12T15:06:02;99915.63;;;24.49;54.43
21988;BME280;11158;53.404;-1.510;2022-09-12T15:08:30;99916.94;;;24.81;53.36
21988;BME280;11158;53.404;-1.510;2022-09-12T15:10:56;99910.00;;;24.88;53.13
21988;BME280;11158;53.404;-1.510;2022-09-12T15:13:26;99911.47;;;24.81;53.45
21988;BME280;11158;53.404;-1.510;2022-09-12T15:15:54;99916.03;;;24.61;53.91
21988;BME280;11158;53.404;-1.510;2022-09-12T15:18:21;99911.53;;;24.46;54.80
21988;BME280;11158;53.404;-1.510;2022-09-12T15:20:51;99909.28;;;23.90;57.09
21988;BME280;11158;53.404;-1.510;2022-09-12T15:23:18;99915.44;;;23.67;57.92
21988;BME280;11158;53.404;-1.510;2022-09-12T15:25:45;99921.78;;;23.02;59.57
21988;BME280;11158;53.404;-1.510;2022-09-12T15:28:16;99920.13;;;23.01;60.74
21988;BME280;11158;53.404;-1.510;2022-09-12T15:30:42;99920.91;;;23.12;60.83
21988;BME280;11158;53.404;-1.510;2022-09-12T15:33:09;99927.00;;;22.73;62.48
21988;BME280;11158;53.404;-1.510;2022-09-12T15:35:36;99923.25;;;23.34;60.37
21988;BME280;11158;53.404;-1.510;2022-09-12T15:38:04;99929.09;;;22.96;61.81
21988;BME280;11158;53.404;-1.510;2022-09-12T15:40:29;99920.19;;;23.46;60.30
21988;BME280;11158;53.404;-1.510;2022-09-12T15:42:55;99930.56;;;22.63;62.58